createdAt,value
2018-04-29T00:02:16.721Z,11.30
2018-04-29T00:04:44.302Z,11.40
2018-04-29T00:07:11.846Z,11.30
2018-04-29T00:09:40.179Z,11.20
2018-04-29T00:12:07.736Z,11.20
2018-04-29T00:14:35.278Z,11.20
2018-04-29T00:17:02.825Z,11.10
2018-04-29T00:19:30.360Z,11.20
2018-04-29T00:21:57.917Z,11.20
2018-04-29T00:24:25.469Z,11.30
2018-04-29T00:26:53.015Z,11.40
2018-04-29T00:29:20.582Z,11.40
2018-04-29T00:31:48.132Z,11.50
2018-04-29T00:34:15.699Z,11.60
2018-04-29T00:36:43.262Z,11.60
2018-04-29T00:39:10.826Z,11.60
2018-04-29T00:41:38.370Z,11.50
2018-04-29T00:44:05.950Z,11.50
2018-04-29T00:46:33.501Z,11.60
2018-04-29T00:49:01.043Z,11.60
2018-04-29T00:51:41.258Z,11.60
2018-04-29T00:54:08.866Z,11.60
2018-04-29T00:56:37.175Z,11.50
2018-04-29T00:59:04.768Z,11.50
2018-04-29T01:01:32.336Z,11.50
2018-04-29T01:03:59.908Z,11.50
2018-04-29T01:06:27.473Z,11.40
2018-04-29T01:08:55.024Z,11.30
2018-04-29T01:11:22.590Z,11.20
2018-04-29T01:13:50.231Z,11.10
2018-04-29T01:16:17.722Z,11.10
2018-04-29T01:18:45.282Z,11.10
2018-04-29T01:21:12.896Z,11.10
2018-04-29T01:23:40.441Z,11.20
2018-04-29T01:26:08.007Z,11.10
2018-04-29T01:28:36.315Z,11.00
2018-04-29T01:31:03.854Z,11.00
2018-04-29T01:33:32.154Z,10.70
2018-04-29T01:35:59.705Z,10.70
2018-04-29T01:38:28.015Z,10.60
2018-04-29T01:40:55.580Z,10.50
2018-04-29T01:43:23.126Z,10.60
2018-04-29T01:45:50.706Z,10.50
2018-04-29T01:48:18.247Z,10.50
2018-04-29T01:50:46.574Z,10.40
2018-04-29T01:53:14.134Z,10.40
2018-04-29T01:55:41.703Z,10.40
2018-04-29T01:58:09.281Z,10.30
2018-04-29T02:00:36.817Z,10.30
2018-04-29T02:03:04.382Z,10.20
2018-04-29T02:05:31.945Z,10.10
2018-04-29T02:07:59.510Z,10.00
2018-04-29T02:10:27.081Z,10.00
2018-04-29T02:12:54.642Z,10.00
2018-04-29T02:15:22.187Z,10.00
2018-04-29T02:17:49.726Z,10.00
2018-04-29T02:20:18.033Z,10.00
2018-04-29T02:22:45.556Z,10.00
2018-04-29T02:25:13.081Z,9.90
2018-04-29T02:27:40.614Z,9.80
2018-04-29T02:30:08.146Z,9.80
2018-04-29T02:32:35.706Z,9.70
2018-04-29T02:35:03.263Z,9.60
2018-04-29T02:37:30.795Z,9.60
2018-04-29T02:39:58.327Z,9.50
2018-04-29T02:42:26.618Z,9.50
2018-04-29T02:44:54.179Z,9.40
2018-04-29T02:47:21.763Z,9.40
2018-04-29T02:49:49.330Z,9.40
2018-04-29T02:52:16.902Z,9.40
2018-04-29T02:54:44.442Z,9.40
2018-04-29T02:57:12.028Z,9.40
2018-04-29T02:59:39.571Z,9.40
2018-04-29T03:02:07.093Z,9.40
2018-04-29T03:04:34.635Z,9.40
2018-04-29T03:07:02.156Z,9.40
2018-04-29T03:09:29.721Z,9.50
2018-04-29T03:11:57.282Z,9.50
2018-04-29T03:14:24.873Z,9.50
2018-04-29T03:16:52.419Z,9.50
2018-04-29T03:19:19.948Z,9.50
2018-04-29T03:21:47.514Z,9.50
2018-04-29T03:24:15.818Z,9.40
2018-04-29T03:26:43.382Z,9.40
2018-04-29T03:29:10.924Z,9.40
2018-04-29T03:31:38.482Z,9.40
2018-04-29T03:34:06.025Z,9.40
2018-04-29T03:36:33.559Z,9.40
2018-04-29T03:39:01.118Z,9.50
2018-04-29T03:41:28.654Z,9.60
2018-04-29T03:43:56.964Z,9.60
2018-04-29T03:46:24.534Z,9.60
2018-04-29T03:48:52.089Z,9.70
2018-04-29T03:51:19.655Z,9.70
2018-04-29T03:53:47.276Z,9.60
2018-04-29T03:56:14.838Z,9.60
2018-04-29T03:58:54.299Z,9.50
2018-04-29T04:01:34.553Z,9.50
2018-04-29T04:04:02.962Z,9.40
2018-04-29T04:06:30.503Z,9.40
2018-04-29T04:08:58.811Z,9.30
2018-04-29T04:11:26.337Z,9.40
2018-04-29T04:13:54.652Z,9.20
2018-04-29T04:16:22.222Z,9.20
2018-04-29T04:18:49.762Z,9.20
2018-04-29T04:21:17.329Z,9.20
2018-04-29T04:23:44.927Z,9.30
2018-04-29T04:26:12.468Z,9.30
2018-04-29T04:28:40.030Z,9.40
2018-04-29T04:31:07.570Z,9.40
2018-04-29T04:33:35.889Z,9.50
2018-04-29T04:36:03.435Z,9.50
2018-04-29T04:38:30.965Z,9.60
2018-04-29T04:40:58.526Z,9.60
2018-04-29T04:43:26.821Z,9.70
2018-04-29T04:45:55.195Z,9.80
2018-04-29T04:48:23.513Z,9.80
2018-04-29T04:50:51.056Z,9.80
2018-04-29T04:53:19.385Z,10.00
2018-04-29T04:55:46.937Z,9.90
2018-04-29T04:58:14.540Z,10.00
2018-04-29T05:00:42.072Z,10.10
2018-04-29T05:03:09.631Z,10.20
2018-04-29T05:05:37.160Z,10.30
2018-04-29T05:08:05.480Z,10.50
2018-04-29T05:10:33.023Z,10.50
2018-04-29T05:13:00.588Z,10.70
2018-04-29T05:15:28.125Z,10.80
2018-04-29T05:17:56.431Z,11.10
2018-04-29T05:20:23.995Z,11.10
2018-04-29T05:22:51.539Z,11.20
2018-04-29T05:25:19.876Z,11.60
2018-04-29T05:27:47.511Z,11.60
2018-04-29T05:30:15.056Z,11.90
2018-04-29T05:32:42.614Z,12.20
2018-04-29T05:35:10.943Z,12.80
2018-04-29T05:37:38.482Z,12.80
2018-04-29T05:40:06.043Z,13.00
2018-04-29T05:42:33.834Z,13.30
2018-04-29T05:45:01.380Z,13.50
2018-04-29T05:47:28.920Z,13.80
2018-04-29T05:49:56.563Z,14.20
2018-04-29T05:52:24.050Z,14.50
2018-04-29T05:54:52.354Z,15.10
2018-04-29T05:57:19.895Z,15.10
2018-04-29T05:59:48.246Z,15.70
2018-04-29T06:02:15.790Z,15.70
2018-04-29T06:04:43.329Z,15.90
2018-04-29T06:07:10.877Z,16.20
2018-04-29T06:09:38.424Z,16.40
2018-04-29T06:12:07.683Z,17.00
2018-04-29T06:14:35.254Z,17.00
2018-04-29T06:54:17.327Z,17.30
2018-04-29T06:56:44.885Z,18.90
2018-04-29T06:59:12.459Z,18.90
2018-04-29T07:01:40.026Z,19.00
2018-04-29T17:57:18.297Z,19.00
2018-04-29T17:59:45.870Z,23.00
2018-04-29T18:02:13.481Z,22.80
2018-04-29T18:04:41.782Z,22.60
2018-04-29T18:07:09.396Z,22.60
2018-04-29T18:09:36.919Z,22.60
2018-04-29T18:12:04.477Z,22.60
2018-04-29T18:14:32.033Z,22.50
2018-04-29T18:16:59.603Z,22.40
2018-04-29T18:19:27.137Z,22.40
2018-04-29T18:21:55.549Z,22.30
2018-04-29T18:24:23.143Z,22.30
2018-04-29T18:26:50.680Z,22.20
2018-04-29T18:29:18.222Z,22.10
2018-04-29T18:31:45.833Z,22.10
2018-04-29T18:34:13.479Z,22.00
2018-04-29T18:36:41.098Z,21.90
2018-04-29T18:39:09.455Z,21.80
2018-04-29T18:41:37.846Z,21.70
2018-04-29T18:44:05.422Z,21.70
2018-04-29T18:46:33.815Z,21.50
2018-04-29T18:49:02.147Z,21.40
2018-04-29T18:51:29.867Z,21.30
2018-04-29T18:53:57.379Z,21.30
2018-04-29T18:56:24.978Z,21.30
2018-04-29T18:58:53.327Z,21.20
2018-04-29T19:01:21.667Z,21.10
2018-04-29T19:03:50.024Z,21.10
2018-04-29T19:06:18.376Z,21.00
2018-04-29T19:08:46.034Z,21.00
2018-04-29T19:11:13.622Z,20.90
2018-04-29T19:13:41.221Z,20.90
2018-04-29T19:16:08.805Z,20.80
2018-04-29T19:18:36.358Z,20.80
2018-04-29T19:21:03.950Z,20.60
2018-04-29T19:23:31.575Z,20.50
2018-04-29T19:25:59.889Z,20.40
2018-04-29T19:28:27.488Z,20.40
2018-04-29T19:30:55.054Z,20.40
2018-04-29T19:33:22.630Z,20.30
2018-04-29T19:35:50.179Z,20.20
2018-04-29T19:38:18.084Z,20.20
2018-04-29T19:40:46.423Z,20.00
2018-04-29T19:43:14.482Z,20.00
2018-04-29T19:45:42.072Z,20.00
2018-04-29T19:48:10.444Z,19.90
2018-04-29T19:50:38.014Z,19.90
2018-04-29T19:53:05.633Z,19.80
2018-04-29T19:55:33.176Z,19.70
2018-04-29T19:58:00.738Z,19.70
2018-04-29T20:00:29.069Z,19.50
2018-04-29T20:02:56.659Z,19.50
2018-04-29T20:05:24.225Z,19.50
2018-04-29T20:07:51.779Z,19.40
2018-04-29T20:10:19.346Z,19.30
2018-04-29T20:12:46.927Z,19.20
2018-04-29T20:15:14.514Z,19.20
2018-04-29T20:17:42.848Z,19.10
2018-04-29T20:20:10.381Z,19.10
2018-04-29T20:22:37.948Z,19.00
2018-04-29T20:25:05.531Z,19.00
2018-04-29T20:27:33.090Z,18.90
2018-04-29T20:30:00.653Z,18.90
2018-04-29T20:32:37.057Z,18.80
2018-04-29T20:35:04.623Z,18.80
2018-04-29T20:37:32.171Z,18.70
2018-04-29T20:39:59.784Z,18.60
2018-04-29T20:42:28.086Z,18.50
2018-04-29T20:44:55.625Z,18.50
2018-04-29T20:47:23.935Z,18.40
2018-04-29T20:49:51.498Z,18.40
2018-04-29T20:52:19.024Z,18.40
2018-04-29T20:54:46.634Z,18.40
2018-04-29T20:57:14.197Z,18.30
2018-04-29T20:59:42.477Z,18.30
2018-04-29T21:02:10.024Z,18.20
2018-04-29T21:04:37.631Z,18.20
2018-04-29T21:07:05.218Z,18.10
2018-04-29T21:09:32.771Z,18.10
2018-04-29T21:12:00.349Z,18.10
2018-04-29T21:14:27.935Z,18.00
2018-04-29T21:16:56.350Z,18.00
2018-04-29T21:19:23.922Z,17.90
2018-04-29T21:21:51.475Z,17.90
2018-04-29T21:24:19.091Z,17.90
2018-04-29T21:26:46.622Z,17.80
2018-04-29T21:29:14.222Z,17.80
2018-04-29T21:31:41.833Z,17.70
2018-04-29T21:34:09.408Z,17.70
2018-04-29T21:36:37.025Z,17.70
2018-04-29T21:39:05.581Z,17.70
2018-04-29T21:41:33.127Z,17.60
2018-04-29T21:44:00.714Z,17.50
2018-04-29T21:46:28.269Z,17.50
2018-04-29T21:48:55.867Z,17.40
2018-04-29T21:51:24.214Z,17.40
2018-04-29T21:53:51.796Z,17.30
2018-04-29T21:56:19.391Z,17.30
2018-04-29T21:58:46.903Z,17.30
2018-04-29T22:01:14.445Z,17.20
2018-04-29T22:03:42.008Z,17.20
2018-04-29T22:06:09.559Z,17.10
2018-04-29T22:08:37.099Z,17.10
2018-04-29T22:11:04.650Z,17.10
2018-04-29T22:13:32.219Z,17.10
2018-04-29T22:15:59.770Z,17.10
2018-04-29T22:18:27.318Z,17.00
2018-04-29T22:20:55.650Z,16.90
2018-04-29T22:23:24.004Z,16.90
2018-04-29T22:25:51.549Z,16.80
2018-04-29T22:28:19.100Z,16.80
2018-04-29T22:30:46.651Z,16.80
2018-04-29T22:33:14.206Z,16.80
2018-04-29T22:35:41.750Z,16.80
2018-04-29T22:38:10.106Z,16.70
2018-04-29T22:40:37.675Z,16.70
2018-04-29T22:43:05.224Z,16.70
2018-04-29T22:45:32.763Z,16.70
2018-04-29T22:48:00.313Z,16.60
2018-04-29T22:50:27.859Z,16.60
2018-04-29T22:52:56.163Z,16.60
2018-04-29T22:55:23.690Z,16.50
2018-04-29T22:57:51.999Z,16.50
2018-04-29T23:00:19.081Z,16.50
2018-04-29T23:02:46.195Z,16.60
2018-04-29T23:05:13.330Z,16.70
2018-04-29T23:07:41.195Z,16.70
2018-04-29T23:10:08.325Z,16.70
2018-04-29T23:12:35.405Z,16.60
2018-04-29T23:15:02.537Z,16.60
2018-04-29T23:17:29.629Z,16.60
2018-04-29T23:19:57.482Z,16.50
2018-04-29T23:22:24.570Z,16.50
2018-04-29T23:24:51.690Z,16.50
2018-04-29T23:27:18.782Z,16.50
2018-04-29T23:29:45.929Z,16.50
2018-04-29T23:32:13.018Z,16.40
2018-04-29T23:34:40.130Z,16.40
2018-04-29T23:37:07.209Z,16.40
2018-04-29T23:42:07.782Z,16.40
2018-04-29T23:44:34.898Z,16.40
2018-04-29T23:47:01.986Z,16.40
2018-04-29T23:49:29.101Z,16.40
2018-04-29T23:51:56.238Z,16.40
2018-04-29T23:54:24.094Z,16.30
2018-04-29T23:56:51.194Z,16.30
2018-04-29T23:59:18.310Z,16.30
